LEAS 241700Z VRB02KT 9999 BKN045 18/16 Q1022 NOSIG